Time;durP1;ratioP1;P1;durP2;ratioP2;P2;SDS_P1;SDS_P2;PMS_P1;PMS_P2;Temp;Humidity;BMP_temperature;BMP_pressure;BME280_temperature;BME280_humidity;BME280_pressure;Samples;Min_cycle;Max_cycle;Signal;HPM_P1;HPM_P2
2021/10/26 00:00:31;;;;;;;34.90;18.20;;;;;;;3.80;100.00;101180.72;5016370;28;20479;-72
2021/10/26 00:02:59;;;;;;;30.02;17.80;;;;;;;3.87;100.00;101177.06;4999207;28;20407;-70
2021/10/26 00:05:28;;;;;;;27.90;15.20;;;;;;;4.01;100.00;101177.69;5016152;28;20541;-72
2021/10/26 00:07:56;;;;;;;24.45;14.32;;;;;;;3.95;100.00;101177.78;5016812;28;20487;-73
2021/10/26 00:10:24;;;;;;;25.63;13.70;;;;;;;3.95;100.00;101175.13;5016602;28;20052;-72
2021/10/26 00:12:52;;;;;;;24.90;14.35;;;;;;;4.00;100.00;101173.31;5016251;28;20042;-72
2021/10/26 00:15:21;;;;;;;27.73;14.55;;;;;;;3.94;100.00;101173.41;5016638;28;20117;-73
2021/10/26 00:17:50;;;;;;;28.77;14.65;;;;;;;4.02;100.00;101171.50;5015901;28;20125;-73
2021/10/26 00:20:19;;;;;;;28.52;15.20;;;;;;;3.90;100.00;101171.72;5017409;28;20042;-72
2021/10/26 00:22:47;;;;;;;28.05;14.85;;;;;;;3.80;100.00;101167.53;5016679;28;20046;-72
2021/10/26 00:25:16;;;;;;;27.90;15.45;;;;;;;3.96;100.00;101166.34;5017225;28;20072;-71
2021/10/26 00:27:44;;;;;;;25.83;16.25;;;;;;;3.95;100.00;101158.44;5015751;28;20080;-72
2021/10/26 00:30:14;;;;;;;31.00;15.98;;;;;;;3.97;100.00;101161.94;5016127;28;20411;-72
2021/10/26 00:32:43;;;;;;;24.30;14.43;;;;;;;3.84;100.00;101160.41;5016078;28;20034;-72
2021/10/26 00:35:13;;;;;;;27.67;15.73;;;;;;;3.66;100.00;101156.31;5016091;28;20129;-72
2021/10/26 00:37:41;;;;;;;27.63;15.77;;;;;;;3.68;100.00;101159.81;5015702;28;20046;-72
2021/10/26 00:40:11;;;;;;;26.00;14.05;;;;;;;3.79;100.00;101155.22;5016056;28;20077;-71
2021/10/26 00:42:40;;;;;;;25.50;15.30;;;;;;;3.81;100.00;101156.06;5015620;28;20052;-72
2021/10/26 00:45:12;;;;;;;28.33;15.60;;;;;;;3.80;100.00;101154.31;5015385;28;20410;-71
2021/10/26 00:47:40;;;;;;;29.90;15.23;;;;;;;3.89;100.00;101154.16;5015161;28;20483;-72
2021/10/26 00:50:09;;;;;;;27.00;15.55;;;;;;;3.66;100.00;101151.91;5015836;28;20050;-71
2021/10/26 00:52:39;;;;;;;30.10;15.50;;;;;;;3.47;100.00;101142.56;5015614;28;20053;-74
2021/10/26 00:55:08;;;;;;;25.77;15.00;;;;;;;3.38;100.00;101146.25;5015809;28;20069;-72
2021/10/26 00:57:37;;;;;;;26.65;16.48;;;;;;;3.28;100.00;101142.03;5015573;28;20057;-72
2021/10/26 01:00:07;;;;;;;27.83;15.98;;;;;;;3.17;100.00;101142.19;5015565;28;20124;-73
2021/10/26 01:02:36;;;;;;;30.52;15.98;;;;;;;3.40;100.00;101143.59;5015650;28;20454;-72
2021/10/26 01:05:05;;;;;;;27.20;14.57;;;;;;;3.17;100.00;101136.03;5015450;28;20057;-72
2021/10/26 01:07:34;;;;;;;26.88;15.40;;;;;;;3.25;100.00;101138.56;5015446;28;20046;-72
2021/10/26 01:10:05;;;;;;;29.23;16.08;;;;;;;3.16;100.00;101135.16;5014806;28;20080;-72
2021/10/26 01:12:34;;;;;;;28.55;15.52;;;;;;;3.28;100.00;101126.22;5015537;28;20046;-71
2021/10/26 01:15:03;;;;;;;27.08;15.27;;;;;;;3.15;100.00;101129.91;5014686;28;20084;-72
2021/10/26 01:17:32;;;;;;;27.77;15.68;;;;;;;3.07;100.00;101129.16;5014969;28;20099;-72
2021/10/26 01:20:03;;;;;;;26.08;15.52;;;;;;;3.20;100.00;101130.72;5014746;28;20543;-75
2021/10/26 01:22:38;;;;;;;26.80;15.40;;;;;;;3.28;100.00;101133.22;5015355;28;20042;-74
2021/10/26 01:25:08;;;;;;;23.00;14.90;;;;;;;3.34;100.00;101122.59;5014901;28;20046;-75
2021/10/26 01:27:42;;;;;;;25.67;15.73;;;;;;;3.33;100.00;101126.13;5015039;28;20050;-74
2021/10/26 01:30:11;;;;;;;;;;;;;;;3.17;100.00;101128.13;5015201;28;20048;-73
2021/10/26 01:32:39;;;;;;;30.83;15.65;;;;;;;3.07;100.00;101121.25;5014915;28;20367;-75
2021/10/26 01:35:09;;;;;;;29.92;15.63;;;;;;;2.91;100.00;101120.63;5014911;28;20046;-74
2021/10/26 01:37:37;;;;;;;25.95;15.40;;;;;;;2.95;100.00;101121.44;5014718;28;20045;-74
2021/10/26 01:40:07;;;;;;;25.45;15.50;;;;;;;2.98;100.00;101114.34;5014845;28;20045;-75
2021/10/26 01:42:37;;;;;;;29.90;15.73;;;;;;;3.23;100.00;101113.97;5014944;28;20073;-75
2021/10/26 01:45:06;;;;;;;27.40;14.63;;;;;;;3.27;100.00;101113.03;5014587;28;20058;-75
2021/10/26 01:47:35;;;;;;;26.08;15.18;;;;;;;3.14;100.00;101115.88;5014674;28;20128;-71
2021/10/26 01:50:03;;;;;;;26.42;15.15;;;;;;;3.14;100.00;101109.72;5014064;28;20050;-72
2021/10/26 01:52:33;;;;;;;28.83;15.25;;;;;;;3.30;100.00;101100.69;5013744;28;20495;-70
2021/10/26 01:55:03;;;;;;;26.92;15.68;;;;;;;3.15;100.00;101095.66;5014368;28;20141;-71
2021/10/26 01:57:32;;;;;;;25.17;15.07;;;;;;;3.28;100.00;101101.59;5014482;28;20050;-71
2021/10/26 02:00:03;;;;;;;29.77;15.30;;;;;;;3.20;100.00;101101.72;5013873;28;20053;-72
2021/10/26 02:02:32;;;;;;;28.23;15.35;;;;;;;3.11;100.00;101099.25;5014565;28;20046;-70
2021/10/26 02:05:03;;;;;;;22.63;13.88;;;;;;;3.13;100.00;101102.72;5013835;28;20812;-72
2021/10/26 02:07:32;;;;;;;27.50;14.25;;;;;;;3.08;100.00;101088.72;5014280;28;20065;-71
2021/10/26 02:10:01;;;;;;;27.40;15.15;;;;;;;3.12;100.00;101095.72;5014003;28;20045;-71
2021/10/26 02:12:29;;;;;;;24.23;14.43;;;;;;;3.12;100.00;101091.31;5014377;28;20048;-70
2021/10/26 02:14:57;;;;;;;23.77;14.38;;;;;;;3.03;100.00;101091.44;5013858;28;20046;-70
2021/10/26 02:17:26;;;;;;;26.05;14.00;;;;;;;3.11;100.00;101083.44;5014151;28;20050;-70
2021/10/26 02:19:54;;;;;;;24.08;13.75;;;;;;;2.94;100.00;101072.28;5013656;28;20049;-72
2021/10/26 02:22:22;;;;;;;23.80;14.13;;;;;;;2.95;100.00;101077.53;5014176;28;20403;-71
2021/10/26 02:24:52;;;;;;;26.80;13.82;;;;;;;3.06;100.00;101075.56;5013563;28;20049;-70
2021/10/26 02:27:21;;;;;;;31.02;14.90;;;;;;;2.82;100.00;101083.88;4996580;28;20120;-71
2021/10/26 02:29:49;;;;;;;25.90;14.25;;;;;;;2.83;100.00;101078.59;5013694;28;20104;-71
2021/10/26 02:32:17;;;;;;;23.63;14.20;;;;;;;2.95;100.00;101088.06;5013521;28;20050;-71
2021/10/26 02:34:45;;;;;;;24.40;14.10;;;;;;;2.88;100.00;101076.72;5013803;28;20052;-73
2021/10/26 02:37:13;;;;;;;26.30;14.38;;;;;;;2.86;100.00;101075.91;5013988;28;20057;-71
2021/10/26 02:39:42;;;;;;;25.00;14.60;;;;;;;2.64;100.00;101065.72;5014111;28;20132;-72
2021/10/26 02:42:11;;;;;;;27.30;14.95;;;;;;;2.74;100.00;101078.72;5015708;28;20057;-76
2021/10/26 02:44:40;;;;;;;24.52;14.32;;;;;;;2.74;100.00;101077.84;5016491;28;20058;-75
2021/10/26 02:47:08;;;;;;;25.40;13.75;;;;;;;2.67;100.00;101087.59;5015229;28;20050;-76
2021/10/26 02:49:36;;;;;;;27.83;15.15;;;;;;;2.67;100.00;101079.69;5013831;28;20044;-75
2021/10/26 02:52:05;;;;;;;24.27;14.35;;;;;;;2.48;100.00;101087.00;5013427;28;20475;-73
2021/10/26 02:54:33;;;;;;;26.35;15.18;;;;;;;2.43;100.00;101083.56;5013767;28;20044;-75
2021/10/26 02:57:04;;;;;;;22.38;13.13;;;;;;;2.46;100.00;101087.91;5013371;28;20084;-74
2021/10/26 02:59:33;;;;;;;24.50;15.07;;;;;;;2.48;100.00;101088.75;5013216;28;20057;-74
2021/10/26 03:02:02;;;;;;;25.63;15.13;;;;;;;2.58;100.00;101087.72;5013179;28;20069;-73
2021/10/26 03:04:31;;;;;;;31.98;14.52;;;;;;;2.75;100.00;101079.59;5013199;28;20136;-73
2021/10/26 03:06:59;;;;;;;26.30;14.10;;;;;;;2.68;100.00;101084.06;5013171;28;20049;-73
2021/10/26 03:09:27;;;;;;;24.40;14.65;;;;;;;2.65;100.00;101083.25;5013469;28;20547;-74
2021/10/26 03:11:56;;;;;;;24.92;15.15;;;;;;;2.46;100.00;101088.78;5013089;28;20045;-74
2021/10/26 03:14:24;;;;;;;26.73;14.77;;;;;;;2.44;100.00;101084.44;5013447;28;20045;-73
2021/10/26 03:16:54;;;;;;;32.38;15.13;;;;;;;2.46;100.00;101085.28;4995809;28;20140;-73
2021/10/26 03:19:23;;;;;;;23.73;14.90;;;;;;;2.48;100.00;101080.84;5013323;28;20488;-74
2021/10/26 03:21:51;;;;;;;26.30;14.85;;;;;;;2.51;100.00;101081.69;5012968;28;20034;-73
2021/10/26 03:24:19;;;;;;;27.90;15.13;;;;;;;2.44;100.00;101084.44;5012978;28;20064;-74
2021/10/26 03:26:49;;;;;;;25.80;14.77;;;;;;;2.55;100.00;101072.84;5012966;28;20046;-77
2021/10/26 03:29:18;;;;;;;25.88;15.30;;;;;;;2.47;100.00;101080.00;5013351;28;20057;-74
2021/10/26 03:31:47;;;;;;;24.30;14.48;;;;;;;2.51;100.00;101083.44;5013257;28;20392;-73
2021/10/26 03:34:17;;;;;;;26.25;15.05;;;;;;;2.49;100.00;101080.81;5013223;28;20053;-72
2021/10/26 03:36:45;;;;;;;24.67;14.93;;;;;;;2.29;100.00;101077.59;5013329;28;20045;-72
2021/10/26 03:39:13;;;;;;;26.45;15.13;;;;;;;2.27;100.00;101087.28;5012903;28;20092;-71
2021/10/26 03:41:42;;;;;;;28.75;14.93;;;;;;;2.16;100.00;101084.78;5012791;28;20053;-72
2021/10/26 03:44:10;;;;;;;29.48;15.50;;;;;;;2.12;100.00;101083.06;5012280;28;20046;-72
2021/10/26 03:46:38;;;;;;;24.40;14.85;;;;;;;2.16;100.00;101076.91;5012899;28;20046;-71
2021/10/26 03:49:06;;;;;;;28.48;15.45;;;;;;;2.21;100.00;101082.94;5012577;28;20121;-71
2021/10/26 03:51:36;;;;;;;28.38;14.95;;;;;;;2.08;100.00;101086.63;4995355;28;20046;-76
2021/10/26 03:54:04;;;;;;;25.95;14.93;;;;;;;2.10;100.00;101081.34;5012743;28;20038;-71
2021/10/26 03:56:33;;;;;;;26.85;15.65;;;;;;;2.06;100.00;101075.28;5012693;28;20052;-72
2021/10/26 03:59:04;;;;;;;24.27;15.23;;;;;;;2.09;100.00;101079.63;5012324;28;20057;-74
2021/10/26 04:01:33;;;;;;;27.25;14.82;;;;;;;2.12;100.00;101085.69;5012901;28;20046;-75
2021/10/26 04:04:02;;;;;;;28.48;14.93;;;;;;;2.09;100.00;101080.47;5012659;28;20400;-74
2021/10/26 04:06:30;;;;;;;23.30;14.35;;;;;;;2.03;100.00;101080.56;5012635;28;20049;-72
2021/10/26 04:09:02;;;;;;;26.95;14.82;;;;;;;1.98;100.00;101085.00;5012506;28;20057;-72
2021/10/26 04:11:39;;;;;;;30.35;15.80;;;;;;;1.85;100.00;101089.56;5012791;28;20574;-73
2021/10/26 04:14:07;;;;;;;26.05;15.18;;;;;;;1.80;100.00;101085.22;5012591;28;20049;-73
2021/10/26 04:16:35;;;;;;;24.50;15.23;;;;;;;1.68;100.00;101088.84;5014188;28;20096;-71
2021/10/26 04:19:03;;;;;;;25.92;15.50;;;;;;;1.74;100.00;101091.44;5015918;28;20402;-72
2021/10/26 04:21:32;;;;;;;31.23;16.33;;;;;;;1.62;100.00;101092.41;5016328;28;20038;-71
2021/10/26 04:24:01;;;;;;;30.02;16.30;;;;;;;1.65;100.00;101091.53;5015799;28;20034;-74
2021/10/26 04:26:30;;;;;;;29.73;16.63;;;;;;;1.84;100.00;101093.06;5016414;28;20121;-71
2021/10/26 04:28:58;;;;;;;29.17;16.58;;;;;;;1.63;100.00;101091.50;5015477;28;20046;-72
2021/10/26 04:31:27;;;;;;;28.75;17.15;;;;;;;1.42;100.00;101084.72;4998942;28;20054;-72
2021/10/26 04:33:57;;;;;;;31.25;16.88;;;;;;;1.56;100.00;101092.50;5015789;28;20391;-72
2021/10/26 04:36:25;;;;;;;33.00;17.45;;;;;;;1.76;100.00;101086.16;5016027;28;20046;-73
2021/10/26 04:38:53;;;;;;;33.13;17.10;;;;;;;1.74;100.00;101094.06;4998454;28;20045;-75
2021/10/26 04:41:26;;;;;;;27.23;16.40;;;;;;;1.68;100.00;101084.47;5017160;28;20046;-72
2021/10/26 04:43:55;;;;;;;30.63;17.35;;;;;;;1.58;100.00;101084.56;5015945;28;20046;-76
2021/10/26 04:46:23;;;;;;;30.15;17.02;;;;;;;1.62;100.00;101084.53;5016358;28;20058;-73
2021/10/26 04:48:53;;;;;;;27.58;16.63;;;;;;;1.60;100.00;101085.44;5015773;28;20050;-73
2021/10/26 04:51:22;;;;;;;29.88;16.45;;;;;;;1.69;100.00;101078.31;5016130;28;20046;-73
2021/10/26 04:53:52;;;;;;;27.13;15.90;;;;;;;1.80;100.00;101079.97;5016305;28;20037;-71
2021/10/26 04:56:21;;;;;;;26.85;15.77;;;;;;;1.78;100.00;101081.75;5015614;28;20034;-72
2021/10/26 04:58:52;;;;;;;31.17;17.42;;;;;;;1.67;100.00;101080.09;5015552;28;20561;-72
2021/10/26 05:01:25;;;;;;;26.13;16.05;;;;;;;1.64;100.00;101089.75;5015657;28;20054;-70
2021/10/26 05:03:53;;;;;;;30.67;17.10;;;;;;;1.69;100.00;101083.56;5016154;28;20100;-71
2021/10/26 05:06:22;;;;;;;30.30;17.23;;;;;;;1.67;100.00;101089.75;5015689;28;20037;-70
2021/10/26 05:08:52;;;;;;;33.05;18.52;;;;;;;1.52;100.00;101093.38;5015442;28;20037;-72
2021/10/26 05:11:21;;;;;;;30.35;17.02;;;;;;;1.70;100.00;101092.34;4997433;28;20054;-72
2021/10/26 05:13:51;;;;;;;32.65;18.08;;;;;;;1.80;100.00;101093.09;5015216;28;20053;-70
2021/10/26 05:16:20;;;;;;;30.33;16.73;;;;;;;1.87;100.00;101094.78;5015162;28;20543;-70
2021/10/26 05:18:52;;;;;;;30.65;17.55;;;;;;;1.75;100.00;101093.19;5014912;28;20041;-70
2021/10/26 05:21:21;;;;;;;30.50;16.90;;;;;;;1.95;100.00;101095.59;5014916;28;20069;-71
2021/10/26 05:23:49;;;;;;;31.30;17.95;;;;;;;1.72;100.00;101098.44;5014758;28;20053;-71
2021/10/26 05:26:19;;;;;;;30.45;18.15;;;;;;;1.80;100.00;101093.09;5014652;28;20048;-71
2021/10/26 05:28:48;;;;;;;29.05;16.42;;;;;;;1.76;100.00;101089.66;5013943;28;20415;-71
2021/10/26 05:31:18;;;;;;;30.00;16.80;;;;;;;1.87;100.00;101097.41;5014598;28;20050;-71
2021/10/26 05:33:47;;;;;;;31.52;16.98;;;;;;;1.79;100.00;101096.63;5015005;28;20065;-68
2021/10/26 05:36:16;;;;;;;30.60;17.42;;;;;;;1.74;100.00;101101.97;5014406;28;20045;-68
2021/10/26 05:38:44;;;;;;;29.48;18.35;;;;;;;1.88;100.00;101096.53;5014732;28;20045;-68
2021/10/26 05:41:13;;;;;;;30.30;18.20;;;;;;;1.90;100.00;101107.91;5014578;28;20096;-69
2021/10/26 05:43:41;;;;;;;29.10;17.38;;;;;;;1.73;100.00;101108.06;5014806;28;20448;-68
2021/10/26 05:46:10;;;;;;;28.13;17.42;;;;;;;1.79;100.00;101113.28;5014256;28;20097;-68
2021/10/26 05:48:40;;;;;;;29.80;17.48;;;;;;;1.87;100.00;101121.97;5014551;28;20050;-68
2021/10/26 05:51:08;;;;;;;35.47;18.13;;;;;;;2.04;100.00;101113.91;5014355;28;20081;-70
2021/10/26 05:53:36;;;;;;;31.85;17.52;;;;;;;2.13;100.00;101132.22;5014756;28;20042;-71
2021/10/26 05:56:06;;;;;;;33.40;18.45;;;;;;;2.32;100.00;101126.69;5014433;28;20119;-71
2021/10/26 05:58:34;;;;;;;37.05;18.45;;;;;;;2.11;100.00;101131.34;5014629;28;20403;-70
2021/10/26 06:01:03;;;;;;;35.13;19.10;;;;;;;2.06;100.00;101129.66;5014316;28;20065;-72
2021/10/26 06:03:32;;;;;;;29.83;17.90;;;;;;;2.20;100.00;101135.63;5014252;28;20403;-71
2021/10/26 06:06:02;;;;;;;35.50;18.70;;;;;;;2.38;100.00;101131.91;5014272;28;20042;-78
2021/10/26 06:08:31;;;;;;;33.38;18.85;;;;;;;2.30;100.00;101135.50;5014208;28;20406;-71
2021/10/26 06:11:03;;;;;;;35.65;18.52;;;;;;;2.24;100.00;101135.59;5014425;28;20067;-70
2021/10/26 06:13:35;;;;;;;27.98;18.00;;;;;;;2.47;100.00;101131.78;5014337;28;20382;-71
2021/10/26 06:16:04;;;;;;;34.67;18.67;;;;;;;2.60;100.00;101143.88;5014000;28;20458;-70
2021/10/26 06:18:32;;;;;;;29.80;17.83;;;;;;;2.50;100.00;101142.28;5014112;28;20050;-67
2021/10/26 06:21:02;;;;;;;36.60;17.90;;;;;;;2.63;100.00;101141.25;5013930;28;20118;-67
2021/10/26 06:23:31;;;;;;;36.10;17.67;;;;;;;2.73;100.00;101142.84;5014289;28;20046;-66
2021/10/26 06:26:00;;;;;;;31.20;17.75;;;;;;;2.63;100.00;101150.91;5013762;28;20049;-69
2021/10/26 06:28:29;;;;;;;31.58;17.75;;;;;;;2.86;100.00;101152.31;4996331;28;20053;-69
2021/10/26 06:30:58;;;;;;;36.00;18.60;;;;;;;2.90;100.00;101149.66;5014078;28;20395;-69
2021/10/26 06:33:26;;;;;;;33.25;19.45;;;;;;;3.02;100.00;101152.09;5014379;28;20046;-70
2021/10/26 06:35:55;;;;;;;32.30;18.42;;;;;;;3.15;100.00;101158.91;5014103;28;20133;-69
2021/10/26 06:38:24;;;;;;;41.38;21.38;;;;;;;2.99;100.00;101162.66;5013660;28;20613;-69
2021/10/26 06:40:53;;;;;;;33.30;18.48;;;;;;;3.00;100.00;101159.16;5013648;28;20450;-69
2021/10/26 06:43:21;;;;;;;35.33;18.15;;;;;;;2.93;100.00;101173.31;5013293;28;20050;-69
2021/10/26 06:45:49;;;;;;;36.00;18.15;;;;;;;3.08;100.00;101168.69;5013221;28;20050;-69
2021/10/26 06:48:19;;;;;;;32.80;18.65;;;;;;;3.24;100.00;101171.97;5013207;28;20046;-69
2021/10/26 06:50:48;;;;;;;32.25;17.92;;;;;;;3.36;100.00;101171.75;4996430;28;20463;-69
2021/10/26 06:53:18;;;;;;;34.50;17.38;;;;;;;3.37;100.00;101176.13;5013243;28;20550;-72
2021/10/26 06:55:48;;;;;;;31.60;16.63;;;;;;;3.43;100.00;101177.81;5013686;28;20048;-70
2021/10/26 06:58:17;;;;;;;31.02;17.05;;;;;;;3.45;100.00;101181.28;5013223;28;20057;-69
2021/10/26 07:00:45;;;;;;;35.17;18.98;;;;;;;3.53;100.00;101186.47;5013025;28;20053;-69
2021/10/26 07:03:13;;;;;;;35.22;18.15;;;;;;;3.64;100.00;101184.50;5013314;28;20081;-69
2021/10/26 07:05:42;;;;;;;32.88;18.05;;;;;;;3.72;100.00;101183.47;5013195;28;20046;-69
2021/10/26 07:08:10;;;;;;;31.98;17.35;;;;;;;3.79;100.00;101181.63;5013301;28;20048;-69
2021/10/26 07:10:38;;;;;;;34.42;18.75;;;;;;;3.86;100.00;101179.72;5013411;28;20159;-67
2021/10/26 07:13:08;;;;;;;37.60;19.08;;;;;;;3.89;100.00;101180.56;5013090;28;20543;-73
2021/10/26 07:15:36;;;;;;;39.25;19.52;;;;;;;3.89;100.00;101175.28;5013055;28;20049;-68
2021/10/26 07:18:05;;;;;;;34.38;19.02;;;;;;;3.89;100.00;101180.56;5011084;28;20042;-66
2021/10/26 07:20:33;;;;;;;32.55;19.65;;;;;;;3.91;100.00;101173.47;5012880;28;20038;-68
2021/10/26 07:23:06;;;;;;;;;;;;;;;4.31;100.00;101178.00;5011337;28;20449;-69
2021/10/26 07:25:35;;;;;;;29.00;16.48;;;;;;;4.57;100.00;101175.69;5012240;28;19922;-69
2021/10/26 07:28:04;;;;;;;29.50;17.67;;;;;;;4.72;100.00;101168.34;5012433;28;20134;-67
2021/10/26 07:30:35;;;;;;;34.45;18.38;;;;;;;4.89;100.00;101177.66;5012914;28;20080;-68
2021/10/26 07:33:07;;;;;;;30.80;17.80;;;;;;;4.94;100.00;101174.91;5013338;28;20092;-68
2021/10/26 07:35:40;;;;;;;32.50;17.38;;;;;;;4.90;100.00;101178.50;5013129;28;20076;-67
2021/10/26 07:38:10;;;;;;;31.88;17.77;;;;;;;4.87;100.00;101176.81;5013025;28;20077;-68
2021/10/26 07:40:38;;;;;;;33.45;17.58;;;;;;;4.94;100.00;101174.91;5013327;28;20046;-68
2021/10/26 07:43:06;;;;;;;31.30;16.48;;;;;;;5.06;100.00;101177.28;5013256;28;20100;-67
2021/10/26 07:45:36;;;;;;;32.78;17.35;;;;;;;5.09;100.00;101171.91;5012821;28;20057;-67
2021/10/26 07:48:05;;;;;;;33.33;18.10;;;;;;;5.21;100.00;101177.81;5013261;28;20046;-67
2021/10/26 07:50:33;;;;;;;34.22;17.45;;;;;;;5.63;100.00;101178.56;5012899;28;20124;-67
2021/10/26 07:53:02;;;;;;;27.45;16.88;;;;;;;5.59;100.00;101180.41;5016879;28;20080;-67
2021/10/26 07:55:30;;;;;;;32.45;17.17;;;;;;;5.60;100.00;101176.88;5016911;28;20527;-67
2021/10/26 07:57:58;;;;;;;29.23;15.93;;;;;;;5.67;99.64;101173.13;5016568;28;20418;-67
2021/10/26 08:00:26;;;;;;;31.50;16.23;;;;;;;5.63;99.76;101158.25;5016345;28;20049;-67
2021/10/26 08:02:56;;;;;;;26.75;15.50;;;;;;;5.75;99.97;101165.88;5016537;28;20046;-67
2021/10/26 08:05:27;;;;;;;22.02;12.15;;;;;;;6.15;96.69;101158.69;5016569;28;20120;-68
2021/10/26 08:07:56;;;;;;;21.58;10.90;;;;;;;6.39;94.40;101142.09;5016541;28;20069;-67
2021/10/26 08:10:25;;;;;;;17.27;10.40;;;;;;;6.48;93.31;101146.28;5016336;28;20046;-67
2021/10/26 08:12:53;;;;;;;14.00;8.98;;;;;;;6.76;91.89;101148.97;5016382;28;20092;-67
2021/10/26 08:15:22;;;;;;;16.75;9.40;;;;;;;6.93;90.03;101157.28;5016154;28;20088;-68
2021/10/26 08:17:50;;;;;;;16.30;9.10;;;;;;;7.03;89.43;101155.19;5016133;28;20092;-68
2021/10/26 08:20:20;;;;;;;15.32;8.75;;;;;;;7.25;87.63;101152.75;5016102;28;20081;-67
2021/10/26 08:22:48;;;;;;;14.88;8.32;;;;;;;7.40;85.96;101153.09;5016613;28;20133;-68
2021/10/26 08:25:20;;;;;;;15.02;8.80;;;;;;;7.44;85.53;101140.63;5015934;28;20442;-68
2021/10/26 08:27:52;;;;;;;12.67;8.30;;;;;;;7.57;85.72;101141.94;5016343;28;20475;-68
2021/10/26 08:30:30;;;;;;;16.80;9.95;;;;;;;7.68;84.79;101136.25;5015999;28;20677;-67
2021/10/26 08:33:01;;;;;;;18.10;9.75;;;;;;;7.64;85.09;101140.81;5016351;28;20479;-68
2021/10/26 08:35:31;;;;;;;17.23;8.95;;;;;;;7.69;84.88;101136.22;5016011;28;20073;-67
2021/10/26 08:38:04;;;;;;;20.35;9.43;;;;;;;7.88;83.78;101135.56;5015750;28;20042;-67
2021/10/26 08:40:35;;;;;;;16.38;10.10;;;;;;;7.87;84.06;101140.03;5015614;28;20073;-69
2021/10/26 08:43:07;;;;;;;23.15;9.82;;;;;;;7.97;82.75;101130.81;5016029;28;20076;-68
2021/10/26 08:45:37;;;;;;;15.02;9.50;;;;;;;8.04;82.52;101121.69;5015646;28;20049;-68
2021/10/26 08:48:11;;;;;;;21.25;10.20;;;;;;;8.06;82.29;101128.75;5015707;28;20052;-68
2021/10/26 08:50:46;;;;;;;17.63;9.85;;;;;;;8.07;82.02;101126.03;5015615;28;20041;-68
2021/10/26 08:53:14;;;;;;;15.87;10.10;;;;;;;8.10;82.00;101125.91;5016023;28;20050;-68
2021/10/26 08:55:43;;;;;;;18.77;10.07;;;;;;;8.21;81.52;101123.75;5015924;28;20049;-68
2021/10/26 08:58:12;;;;;;;19.23;9.35;;;;;;;8.30;80.41;101128.75;5015494;28;20491;-68
2021/10/26 09:00:41;;;;;;;15.63;8.93;;;;;;;8.35;80.28;101125.06;5015939;28;20049;-68
2021/10/26 09:03:20;;;;;;;15.52;8.82;;;;;;;8.49;80.35;101128.06;5015143;28;20542;-68
2021/10/26 09:05:50;;;;;;;15.57;9.50;;;;;;;8.52;78.97;101131.47;5015820;28;20096;-68
2021/10/26 09:08:21;;;;;;;20.50;10.93;;;;;;;8.52;78.83;101134.16;5015280;28;20057;-68
2021/10/26 09:10:51;;;;;;;17.42;10.57;;;;;;;8.45;80.15;101131.75;5016087;28;20088;-68
2021/10/26 09:19:12;;;;;;;20.83;10.07;;;;;;;8.82;77.45;101137.41;5015352;28;20396;-68
2021/10/26 09:21:42;;;;;;;16.70;9.93;;;;;;;8.86;77.54;101127.50;5015172;28;20046;-68
2021/10/26 09:24:12;;;;;;;16.52;9.30;;;;;;;8.84;76.87;101126.72;5016056;28;20088;-67
2021/10/26 09:26:52;;;;;;;16.08;9.25;;;;;;;9.02;75.99;101130.44;5015455;28;20523;-67
2021/10/26 09:29:41;;;;;;;14.80;8.55;;;;;;;9.03;76.06;101122.41;5015115;28;20049;-67
2021/10/26 09:32:14;;;;;;;16.88;9.98;;;;;;;9.14;75.26;101122.84;5015220;28;20121;-67
2021/10/26 09:34:45;;;;;;;15.43;9.18;;;;;;;9.15;76.01;101123.69;5014827;28;20129;-68
2021/10/26 09:37:17;;;;;;;16.20;9.77;;;;;;;9.11;76.47;101122.09;5016241;28;20046;-68
2021/10/26 09:39:53;;;;;;;16.90;9.20;;;;;;;9.27;75.52;101117.03;5014825;28;20574;-68
2021/10/26 09:42:21;;;;;;;17.60;9.23;;;;;;;9.23;75.68;101118.06;5014416;28;20558;-68
2021/10/26 09:44:52;;;;;;;15.68;9.13;;;;;;;9.22;75.42;101119.00;5014623;28;20569;-68
2021/10/26 09:47:24;;;;;;;19.95;9.90;;;;;;;9.12;76.06;101110.53;5014694;28;20070;-69
2021/10/26 09:49:56;;;;;;;17.30;9.52;;;;;;;8.98;76.62;101113.75;5014921;28;20076;-67
2021/10/26 09:52:28;;;;;;;15.68;9.73;;;;;;;8.93;77.43;101105.06;5014346;28;20108;-68
2021/10/26 09:55:19;;;;;;;20.08;9.88;;;;;;;9.00;77.29;101109.22;5015575;28;20591;-68
2021/10/26 09:57:50;;;;;;;18.23;9.60;;;;;;;9.00;77.18;101101.25;5014964;28;20100;-68
2021/10/26 10:00:23;;;;;;;15.73;9.23;;;;;;;8.94;77.00;101093.50;5014803;28;20050;-68
2021/10/26 10:03:02;;;;;;;17.02;10.05;;;;;;;8.95;77.53;101095.22;5014652;28;20058;-67
2021/10/26 10:05:33;;;;;;;20.52;9.73;;;;;;;8.89;77.49;101095.50;5014345;28;20042;-67
2021/10/26 10:08:19;;;;;;;20.52;10.55;;;;;;;8.98;77.21;101089.81;5014469;28;20050;-68
2021/10/26 10:10:48;;;;;;;17.13;9.93;;;;;;;8.99;77.41;101085.34;5014369;28;20487;-69
2021/10/26 10:13:17;;;;;;;21.38;10.13;;;;;;;9.10;76.57;101081.31;5013898;28;20129;-68
2021/10/26 10:15:47;;;;;;;17.42;9.75;;;;;;;9.20;77.05;101072.94;5013640;28;20376;-68
2021/10/26 10:18:17;;;;;;;16.77;9.20;;;;;;;9.24;76.67;101069.22;5014116;28;20037;-68
2021/10/26 10:20:46;;;;;;;18.35;9.55;;;;;;;9.22;75.71;101071.94;5013955;28;20068;-68
2021/10/26 10:23:17;;;;;;;22.70;9.43;;;;;;;9.26;75.71;101062.03;5012832;28;20414;-69
2021/10/26 10:25:48;;;;;;;16.15;9.90;;;;;;;9.19;76.31;101064.09;5013465;28;20073;-68
2021/10/26 10:28:19;;;;;;;16.95;8.63;;;;;;;9.51;75.28;101062.72;5014224;28;20046;-68
2021/10/26 10:30:47;;;;;;;18.10;9.80;;;;;;;9.40;75.94;101065.00;5013993;28;20041;-69
2021/10/26 10:33:18;;;;;;;16.00;10.07;;;;;;;9.36;75.59;101053.63;5013619;28;20042;-68
2021/10/26 10:35:48;;;;;;;16.42;9.93;;;;;;;9.38;75.95;101051.75;5013977;28;20395;-68
2021/10/26 10:38:19;;;;;;;15.60;9.63;;;;;;;9.36;76.07;101048.28;5013912;28;20042;-68
2021/10/26 10:40:48;;;;;;;16.67;9.70;;;;;;;9.38;75.68;101046.41;5013863;28;20148;-68
2021/10/26 10:43:34;;;;;;;16.20;9.10;;;;;;;9.50;74.89;101038.84;5013815;28;20041;-69
2021/10/26 10:46:04;;;;;;;17.00;9.38;;;;;;;9.57;74.38;101033.19;5013702;28;20064;-68
2021/10/26 10:48:32;;;;;;;17.55;9.57;;;;;;;9.65;74.48;101033.72;5013287;28;20042;-69
2021/10/26 10:51:07;;;;;;;16.75;9.40;;;;;;;9.71;74.86;101035.22;5013761;28;20399;-68
2021/10/26 10:53:37;;;;;;;15.45;9.57;;;;;;;9.77;74.41;101026.09;5013377;28;20061;-67
2021/10/26 10:56:14;;;;;;;14.63;9.23;;;;;;;9.73;74.68;101026.22;5013794;28;20042;-68
2021/10/26 10:58:43;;;;;;;14.80;9.25;;;;;;;9.64;75.63;101029.28;5013138;28;20042;-68
2021/10/26 11:01:25;;;;;;;15.52;8.77;;;;;;;9.79;74.76;101021.56;5013865;28;20061;-68
2021/10/26 11:03:54;;;;;;;19.08;8.82;;;;;;;9.77;74.90;101016.31;5013581;28;20476;-67
2021/10/26 11:06:52;;;;;;;14.80;8.93;;;;;;;9.84;75.11;101011.56;5013436;28;20076;-67
2021/10/26 11:09:46;;;;;;;13.95;8.50;;;;;;;9.75;74.75;101008.41;5013637;28;20129;-68
2021/10/26 11:12:32;;;;;;;15.18;8.98;;;;;;;9.69;75.22;100990.00;5013165;28;20073;-68
2021/10/26 11:15:02;;;;;;;14.90;9.40;;;;;;;9.94;74.07;100988.88;5013332;28;20042;-69
2021/10/26 11:18:02;;;;;;;15.68;8.77;;;;;;;10.08;73.59;100991.78;5013185;28;20057;-68
2021/10/26 11:20:44;;;;;;;15.30;9.15;;;;;;;10.08;72.28;100988.25;5013008;28;20041;-68
2021/10/26 11:23:28;;;;;;;14.93;8.57;;;;;;;10.04;73.23;100990.22;5013536;28;20046;-68
2021/10/26 11:26:02;;;;;;;13.63;8.52;;;;;;;10.07;72.66;100986.53;5014141;28;20042;-68
2021/10/26 11:28:41;;;;;;;14.98;8.88;;;;;;;9.95;73.09;100980.84;5016952;28;20096;-69
2021/10/26 11:31:17;;;;;;;17.83;9.18;;;;;;;9.72;74.40;100973.00;5017523;28;20129;-68
2021/10/26 11:33:55;;;;;;;17.63;8.77;;;;;;;9.69;75.23;100970.50;5017178;28;20046;-68